메인 페이지
METAR-TAF:

METAR-TAF

공항 :

알제, 알제리

우아리 부메디엔 공항

위도: 36-43N, 경도: 003-15E, 고도: 25m

현재 날씨관측

예보는 20분 전, 05:30시(UTC)에 발표되었습니다.
남서3kt풍과 풍을 오가는
온도 5°C
습도 93%
기압 1015 hPa
시정 10km 이상
고도 1600ft 상공 구름 조금

METAR: DAAG 200530Z 23003KT 180V260 9999 FEW016 05/04 Q1015

시각: 06:50 (05:50 UTC)

예보

예보는 50분 전, 05:00시(UTC)에 발표되었습니다.
예보 대상 시간: 20일 06시부터 21일 06시까지 (UTC)
여러 방향의 바람 2kt
시정 10km 이상
고도 1600ft 상공 구름 조금
확률 40% :
일시적
20일 06시부터 20일 09시까지 (UTC)
시정: 3000m
고도 1500ft 상공 구름 많음
박무
확률 30% :
일시적
20일 06시부터 20일 08시까지 (UTC)
시정: 1000m
고도 600ft 상공 구름 많음
안개
전환 중
20일 09시부터 20일 12시까지 (UTC)
10kt
확률 30% :
일시적
20일 10시부터 20일 20시까지 (UTC)
고도 2600ft 상공 구름 조금, 타워링 적운.
확률 40% :
일시적
20일 20시부터 21일 06시까지 (UTC)
시정: 5000m
고도 2300ft 상공 구름 조금, 적란운.
약한비

TAF: DAAG 200500Z 2006/2106 VRB02KT 9999 FEW016 PROB40 TEMPO 2006/2009 3000 BR BKN015 PROB30 TEMPO 2006/2008 1000 FG BKN006 BECMG 2009/2012 26010KT PROB30 TEMPO 2010/2020 FEW026TCU PROB40 TEMPO 2020/2106 5000 -RA FEW023CB

4,000개 이상의 공항 관측 자료 및 예보 (METAR 및 TAF 보고).

지도상에서 검색 가능한 기상관측소가 노란 점과 빨간 점으로 표시되어 있습니다.

기상관측소 명을 보려면 표시 위로 마우스를 이동하세요.

날씨 관측과 예보를 보려면 클릭하세요.

지도 변경 : 확대하려면 엑스 표시가 있는 녹색 버튼, 축소하려면 빼기 표시가 있는 녹색 버튼, 다음 페이지의 지도를 보려면 녹색 화살표를 클릭하세요.


METAR-TAF: